sensor_id;sensor_type;location;lat;lon;timestamp;P1;durP1;ratioP1;P2;durP2;ratioP2
34876;SDS011;21086;44.780;17.194;2022-10-22T00:02:24;34.17;;;21.73;;
34876;SDS011;21086;44.780;17.194;2022-10-22T00:04:52;25.10;;;17.90;;
34876;SDS011;21086;44.780;17.194;2022-10-22T00:07:22;25.30;;;17.60;;
34876;SDS011;21086;44.780;17.194;2022-10-22T00:09:49;23.77;;;18.98;;
34876;SDS011;21086;44.780;17.194;2022-10-22T00:12:16;29.15;;;19.45;;
34876;SDS011;21086;44.780;17.194;2022-10-22T00:14:43;27.55;;;20.50;;
34876;SDS011;21086;44.780;17.194;2022-10-22T00:17:10;30.92;;;21.98;;
34876;SDS011;21086;44.780;17.194;2022-10-22T00:19:38;30.45;;;21.30;;
34876;SDS011;21086;44.780;17.194;2022-10-22T00:22:06;23.55;;;17.42;;
34876;SDS011;21086;44.780;17.194;2022-10-22T00:24:36;31.63;;;20.83;;
34876;SDS011;21086;44.780;17.194;2022-10-22T00:27:04;34.25;;;21.75;;
34876;SDS011;21086;44.780;17.194;2022-10-22T00:29:31;35.05;;;21.52;;
34876;SDS011;21086;44.780;17.194;2022-10-22T00:31:58;28.92;;;22.05;;
34876;SDS011;21086;44.780;17.194;2022-10-22T00:34:25;36.05;;;21.15;;
34876;SDS011;21086;44.780;17.194;2022-10-22T00:36:53;29.23;;;18.45;;
34876;SDS011;21086;44.780;17.194;2022-10-22T00:39:21;23.20;;;17.55;;
34876;SDS011;21086;44.780;17.194;2022-10-22T00:41:50;29.27;;;20.55;;
34876;SDS011;21086;44.780;17.194;2022-10-22T00:47:23;21.60;;;16.02;;
34876;SDS011;21086;44.780;17.194;2022-10-22T00:49:52;29.67;;;19.35;;
34876;SDS011;21086;44.780;17.194;2022-10-22T00:52:21;24.65;;;19.23;;
34876;SDS011;21086;44.780;17.194;2022-10-22T00:54:48;27.90;;;16.70;;
34876;SDS011;21086;44.780;17.194;2022-10-22T00:57:16;28.48;;;18.75;;
34876;SDS011;21086;44.780;17.194;2022-10-22T00:59:44;23.33;;;15.85;;
34876;SDS011;21086;44.780;17.194;2022-10-22T01:02:12;26.20;;;18.88;;
34876;SDS011;21086;44.780;17.194;2022-10-22T01:04:39;22.00;;;15.65;;
34876;SDS011;21086;44.780;17.194;2022-10-22T01:07:09;25.52;;;18.00;;
34876;SDS011;21086;44.780;17.194;2022-10-22T01:15:23;29.20;;;20.08;;
34876;SDS011;21086;44.780;17.194;2022-10-22T01:18:01;30.63;;;20.38;;
34876;SDS011;21086;44.780;17.194;2022-10-22T01:31:19;27.35;;;19.02;;
34876;SDS011;21086;44.780;17.194;2022-10-22T01:33:48;28.75;;;19.20;;
34876;SDS011;21086;44.780;17.194;2022-10-22T01:36:18;21.65;;;17.27;;
34876;SDS011;21086;44.780;17.194;2022-10-22T01:38:46;29.40;;;18.08;;
34876;SDS011;21086;44.780;17.194;2022-10-22T01:41:15;22.30;;;16.88;;
34876;SDS011;21086;44.780;17.194;2022-10-22T01:43:42;26.30;;;19.10;;
34876;SDS011;21086;44.780;17.194;2022-10-22T01:46:09;25.42;;;18.10;;
34876;SDS011;21086;44.780;17.194;2022-10-22T01:48:44;29.38;;;19.85;;
34876;SDS011;21086;44.780;17.194;2022-10-22T01:51:34;26.20;;;18.60;;
34876;SDS011;21086;44.780;17.194;2022-10-22T01:56:52;26.95;;;17.40;;
34876;SDS011;21086;44.780;17.194;2022-10-22T01:59:43;25.65;;;17.25;;
34876;SDS011;21086;44.780;17.194;2022-10-22T02:04:53;21.55;;;16.92;;
34876;SDS011;21086;44.780;17.194;2022-10-22T02:07:37;22.35;;;16.05;;
34876;SDS011;21086;44.780;17.194;2022-10-22T02:10:11;20.35;;;15.77;;
34876;SDS011;21086;44.780;17.194;2022-10-22T02:12:39;26.90;;;17.50;;
34876;SDS011;21086;44.780;17.194;2022-10-22T02:15:08;23.38;;;16.80;;
34876;SDS011;21086;44.780;17.194;2022-10-22T02:17:37;25.25;;;17.55;;
34876;SDS011;21086;44.780;17.194;2022-10-22T02:20:09;25.05;;;17.42;;
34876;SDS011;21086;44.780;17.194;2022-10-22T02:22:42;23.88;;;15.93;;
34876;SDS011;21086;44.780;17.194;2022-10-22T02:25:09;23.02;;;16.05;;
34876;SDS011;21086;44.780;17.194;2022-10-22T02:27:40;24.10;;;17.83;;
34876;SDS011;21086;44.780;17.194;2022-10-22T02:30:17;25.20;;;17.75;;
34876;SDS011;21086;44.780;17.194;2022-10-22T02:32:49;19.75;;;14.45;;
34876;SDS011;21086;44.780;17.194;2022-10-22T02:35:18;27.58;;;18.45;;
34876;SDS011;21086;44.780;17.194;2022-10-22T02:37:47;23.10;;;16.20;;
34876;SDS011;21086;44.780;17.194;2022-10-22T02:40:15;22.40;;;16.95;;
34876;SDS011;21086;44.780;17.194;2022-10-22T02:42:43;24.15;;;17.75;;
34876;SDS011;21086;44.780;17.194;2022-10-22T02:45:14;26.38;;;16.10;;
34876;SDS011;21086;44.780;17.194;2022-10-22T02:47:42;26.27;;;17.05;;
34876;SDS011;21086;44.780;17.194;2022-10-22T02:50:09;23.75;;;17.58;;
34876;SDS011;21086;44.780;17.194;2022-10-22T02:52:36;27.77;;;17.88;;
34876;SDS011;21086;44.780;17.194;2022-10-22T02:55:04;22.85;;;17.40;;
34876;SDS011;21086;44.780;17.194;2022-10-22T02:57:31;27.27;;;18.95;;
34876;SDS011;21086;44.780;17.194;2022-10-22T02:59:58;29.27;;;18.42;;
34876;SDS011;21086;44.780;17.194;2022-10-22T03:02:25;31.27;;;19.75;;
34876;SDS011;21086;44.780;17.194;2022-10-22T03:04:52;29.23;;;20.23;;
34876;SDS011;21086;44.780;17.194;2022-10-22T03:07:19;23.20;;;18.08;;
34876;SDS011;21086;44.780;17.194;2022-10-22T03:09:45;25.85;;;17.08;;
34876;SDS011;21086;44.780;17.194;2022-10-22T03:12:12;25.77;;;19.60;;
34876;SDS011;21086;44.780;17.194;2022-10-22T03:14:39;20.13;;;14.60;;
34876;SDS011;21086;44.780;17.194;2022-10-22T03:17:06;24.48;;;16.98;;
34876;SDS011;21086;44.780;17.194;2022-10-22T03:19:33;27.50;;;18.40;;
34876;SDS011;21086;44.780;17.194;2022-10-22T03:22:04;24.38;;;18.30;;
34876;SDS011;21086;44.780;17.194;2022-10-22T03:24:40;30.25;;;20.20;;
34876;SDS011;21086;44.780;17.194;2022-10-22T03:27:09;27.15;;;19.70;;
34876;SDS011;21086;44.780;17.194;2022-10-22T03:29:40;28.20;;;18.80;;
34876;SDS011;21086;44.780;17.194;2022-10-22T03:32:08;23.08;;;17.33;;
34876;SDS011;21086;44.780;17.194;2022-10-22T03:34:34;24.05;;;18.55;;
34876;SDS011;21086;44.780;17.194;2022-10-22T03:37:01;30.48;;;18.38;;
34876;SDS011;21086;44.780;17.194;2022-10-22T03:39:28;25.60;;;16.88;;
34876;SDS011;21086;44.780;17.194;2022-10-22T03:41:58;22.60;;;16.55;;
34876;SDS011;21086;44.780;17.194;2022-10-22T03:44:25;24.25;;;16.70;;
34876;SDS011;21086;44.780;17.194;2022-10-22T03:46:53;21.42;;;15.95;;
34876;SDS011;21086;44.780;17.194;2022-10-22T03:49:26;24.10;;;16.85;;
34876;SDS011;21086;44.780;17.194;2022-10-22T03:51:53;27.13;;;19.40;;
34876;SDS011;21086;44.780;17.194;2022-10-22T03:54:20;22.58;;;16.67;;
34876;SDS011;21086;44.780;17.194;2022-10-22T03:56:47;25.40;;;18.38;;
34876;SDS011;21086;44.780;17.194;2022-10-22T03:59:14;31.45;;;20.55;;
34876;SDS011;21086;44.780;17.194;2022-10-22T04:01:42;31.23;;;19.92;;
34876;SDS011;21086;44.780;17.194;2022-10-22T04:04:09;27.85;;;21.30;;
34876;SDS011;21086;44.780;17.194;2022-10-22T04:06:37;27.52;;;20.80;;
34876;SDS011;21086;44.780;17.194;2022-10-22T04:09:04;33.78;;;20.73;;
34876;SDS011;21086;44.780;17.194;2022-10-22T04:11:32;28.58;;;16.20;;
34876;SDS011;21086;44.780;17.194;2022-10-22T04:13:59;20.90;;;15.45;;
34876;SDS011;21086;44.780;17.194;2022-10-22T04:16:26;20.83;;;15.60;;
34876;SDS011;21086;44.780;17.194;2022-10-22T04:18:56;28.08;;;15.52;;
34876;SDS011;21086;44.780;17.194;2022-10-22T04:21:23;24.25;;;16.45;;
34876;SDS011;21086;44.780;17.194;2022-10-22T04:23:51;23.33;;;14.82;;
34876;SDS011;21086;44.780;17.194;2022-10-22T04:26:19;18.58;;;14.63;;
34876;SDS011;21086;44.780;17.194;2022-10-22T04:28:49;16.98;;;12.95;;
34876;SDS011;21086;44.780;17.194;2022-10-22T04:31:17;18.17;;;12.52;;
34876;SDS011;21086;44.780;17.194;2022-10-22T04:33:46;20.45;;;13.52;;
34876;SDS011;21086;44.780;17.194;2022-10-22T04:36:17;20.88;;;13.02;;
34876;SDS011;21086;44.780;17.194;2022-10-22T04:38:46;20.48;;;13.75;;
34876;SDS011;21086;44.780;17.194;2022-10-22T04:41:14;17.98;;;13.68;;
34876;SDS011;21086;44.780;17.194;2022-10-22T04:43:46;23.10;;;14.57;;
34876;SDS011;21086;44.780;17.194;2022-10-22T04:46:14;22.52;;;15.88;;
34876;SDS011;21086;44.780;17.194;2022-10-22T04:48:43;24.17;;;16.17;;
34876;SDS011;21086;44.780;17.194;2022-10-22T04:51:11;18.73;;;12.63;;
34876;SDS011;21086;44.780;17.194;2022-10-22T04:53:43;26.25;;;17.08;;
34876;SDS011;21086;44.780;17.194;2022-10-22T04:58:42;31.92;;;19.30;;
34876;SDS011;21086;44.780;17.194;2022-10-22T05:01:13;28.15;;;18.88;;
34876;SDS011;21086;44.780;17.194;2022-10-22T05:03:43;31.55;;;20.13;;
34876;SDS011;21086;44.780;17.194;2022-10-22T05:06:11;28.25;;;20.27;;
34876;SDS011;21086;44.780;17.194;2022-10-22T05:08:43;29.58;;;21.42;;
34876;SDS011;21086;44.780;17.194;2022-10-22T05:11:17;32.15;;;19.10;;
34876;SDS011;21086;44.780;17.194;2022-10-22T05:13:45;35.75;;;20.90;;
34876;SDS011;21086;44.780;17.194;2022-10-22T05:16:12;23.38;;;16.38;;
34876;SDS011;21086;44.780;17.194;2022-10-22T05:18:41;29.02;;;16.30;;
34876;SDS011;21086;44.780;17.194;2022-10-22T05:21:11;26.45;;;18.23;;
34876;SDS011;21086;44.780;17.194;2022-10-22T05:23:39;26.92;;;19.85;;
34876;SDS011;21086;44.780;17.194;2022-10-22T05:26:07;23.38;;;17.40;;
34876;SDS011;21086;44.780;17.194;2022-10-22T05:28:35;22.38;;;16.55;;
34876;SDS011;21086;44.780;17.194;2022-10-22T05:31:04;27.50;;;18.13;;
34876;SDS011;21086;44.780;17.194;2022-10-22T05:33:32;24.63;;;15.88;;
34876;SDS011;21086;44.780;17.194;2022-10-22T05:36:00;23.40;;;14.43;;
34876;SDS011;21086;44.780;17.194;2022-10-22T05:38:27;29.05;;;17.85;;
34876;SDS011;21086;44.780;17.194;2022-10-22T05:41:01;25.60;;;17.98;;
34876;SDS011;21086;44.780;17.194;2022-10-22T05:43:29;20.48;;;14.55;;
34876;SDS011;21086;44.780;17.194;2022-10-22T05:46:01;25.25;;;18.45;;
34876;SDS011;21086;44.780;17.194;2022-10-22T05:48:29;25.00;;;15.55;;
34876;SDS011;21086;44.780;17.194;2022-10-22T05:51:05;25.63;;;16.38;;
34876;SDS011;21086;44.780;17.194;2022-10-22T05:53:34;25.90;;;11.77;;
34876;SDS011;21086;44.780;17.194;2022-10-22T05:56:04;18.48;;;10.07;;
34876;SDS011;21086;44.780;17.194;2022-10-22T05:58:33;21.65;;;11.02;;
34876;SDS011;21086;44.780;17.194;2022-10-22T06:01:05;34.50;;;20.83;;
34876;SDS011;21086;44.780;17.194;2022-10-22T06:03:34;20.45;;;10.40;;
34876;SDS011;21086;44.780;17.194;2022-10-22T06:06:02;22.05;;;11.45;;
34876;SDS011;21086;44.780;17.194;2022-10-22T06:08:33;19.75;;;13.15;;
34876;SDS011;21086;44.780;17.194;2022-10-22T06:11:03;25.02;;;12.23;;
34876;SDS011;21086;44.780;17.194;2022-10-22T06:13:31;27.17;;;17.38;;
34876;SDS011;21086;44.780;17.194;2022-10-22T06:15:58;37.13;;;22.83;;
34876;SDS011;21086;44.780;17.194;2022-10-22T06:18:25;25.23;;;18.63;;
34876;SDS011;21086;44.780;17.194;2022-10-22T06:20:54;27.05;;;18.15;;
34876;SDS011;21086;44.780;17.194;2022-10-22T06:23:21;24.80;;;16.27;;
34876;SDS011;21086;44.780;17.194;2022-10-22T06:25:55;28.00;;;21.00;;
34876;SDS011;21086;44.780;17.194;2022-10-22T06:28:23;30.33;;;20.95;;
34876;SDS011;21086;44.780;17.194;2022-10-22T06:30:56;30.35;;;23.75;;
34876;SDS011;21086;44.780;17.194;2022-10-22T06:33:24;36.97;;;24.77;;
34876;SDS011;21086;44.780;17.194;2022-10-22T06:35:52;32.90;;;23.52;;
34876;SDS011;21086;44.780;17.194;2022-10-22T06:38:19;27.33;;;21.73;;
34876;SDS011;21086;44.780;17.194;2022-10-22T06:40:47;37.47;;;24.75;;
34876;SDS011;21086;44.780;17.194;2022-10-22T06:43:13;45.35;;;23.58;;
34876;SDS011;21086;44.780;17.194;2022-10-22T06:45:41;25.33;;;18.67;;
34876;SDS011;21086;44.780;17.194;2022-10-22T06:48:07;24.75;;;16.77;;
34876;SDS011;21086;44.780;17.194;2022-10-22T06:50:34;21.23;;;14.63;;
34876;SDS011;21086;44.780;17.194;2022-10-22T06:53:01;20.77;;;13.55;;
34876;SDS011;21086;44.780;17.194;2022-10-22T06:55:29;19.60;;;13.65;;
34876;SDS011;21086;44.780;17.194;2022-10-22T06:57:55;23.17;;;12.82;;
34876;SDS011;21086;44.780;17.194;2022-10-22T07:00:22;17.55;;;12.27;;
34876;SDS011;21086;44.780;17.194;2022-10-22T07:02:50;22.42;;;13.23;;
34876;SDS011;21086;44.780;17.194;2022-10-22T07:05:24;19.95;;;11.48;;
34876;SDS011;21086;44.780;17.194;2022-10-22T07:07:51;21.17;;;12.35;;
34876;SDS011;21086;44.780;17.194;2022-10-22T07:10:18;17.73;;;13.80;;
34876;SDS011;21086;44.780;17.194;2022-10-22T07:12:45;19.55;;;13.02;;
34876;SDS011;21086;44.780;17.194;2022-10-22T07:15:12;25.95;;;14.02;;
34876;SDS011;21086;44.780;17.194;2022-10-22T07:17:39;23.48;;;13.75;;
34876;SDS011;21086;44.780;17.194;2022-10-22T07:20:06;21.45;;;15.20;;
34876;SDS011;21086;44.780;17.194;2022-10-22T07:22:33;20.15;;;13.52;;
34876;SDS011;21086;44.780;17.194;2022-10-22T07:25:00;28.85;;;19.63;;
34876;SDS011;21086;44.780;17.194;2022-10-22T07:27:32;32.42;;;19.02;;
34876;SDS011;21086;44.780;17.194;2022-10-22T07:29:59;29.83;;;19.55;;
34876;SDS011;21086;44.780;17.194;2022-10-22T07:32:26;25.83;;;17.17;;
34876;SDS011;21086;44.780;17.194;2022-10-22T07:34:53;19.15;;;15.15;;
34876;SDS011;21086;44.780;17.194;2022-10-22T07:37:20;25.02;;;15.52;;
34876;SDS011;21086;44.780;17.194;2022-10-22T07:39:47;28.60;;;17.55;;
34876;SDS011;21086;44.780;17.194;2022-10-22T07:42:15;27.17;;;18.48;;
34876;SDS011;21086;44.780;17.194;2022-10-22T07:44:42;28.10;;;18.80;;
34876;SDS011;21086;44.780;17.194;2022-10-22T07:47:08;26.20;;;16.63;;
34876;SDS011;21086;44.780;17.194;2022-10-22T07:49:35;28.10;;;18.25;;
34876;SDS011;21086;44.780;17.194;2022-10-22T07:52:03;21.13;;;16.08;;
34876;SDS011;21086;44.780;17.194;2022-10-22T07:54:32;28.20;;;17.75;;
34876;SDS011;21086;44.780;17.194;2022-10-22T07:56:59;23.60;;;16.80;;
34876;SDS011;21086;44.780;17.194;2022-10-22T07:59:25;31.80;;;21.13;;
34876;SDS011;21086;44.780;17.194;2022-10-22T08:01:53;30.83;;;19.58;;
34876;SDS011;21086;44.780;17.194;2022-10-22T08:04:19;29.88;;;17.27;;
34876;SDS011;21086;44.780;17.194;2022-10-22T08:06:46;29.98;;;18.73;;
34876;SDS011;21086;44.780;17.194;2022-10-22T08:09:13;27.55;;;19.17;;
34876;SDS011;21086;44.780;17.194;2022-10-22T08:11:40;22.70;;;17.42;;
34876;SDS011;21086;44.780;17.194;2022-10-22T08:14:07;27.35;;;18.02;;
34876;SDS011;21086;44.780;17.194;2022-10-22T08:16:34;19.35;;;15.98;;
34876;SDS011;21086;44.780;17.194;2022-10-22T08:19:01;28.40;;;16.10;;
34876;SDS011;21086;44.780;17.194;2022-10-22T08:21:28;24.55;;;13.93;;
34876;SDS011;21086;44.780;17.194;2022-10-22T08:23:55;20.73;;;13.93;;
34876;SDS011;21086;44.780;17.194;2022-10-22T08:26:22;25.75;;;16.00;;
34876;SDS011;21086;44.780;17.194;2022-10-22T08:28:49;26.85;;;15.13;;
34876;SDS011;21086;44.780;17.194;2022-10-22T08:31:15;27.02;;;14.70;;
34876;SDS011;21086;44.780;17.194;2022-10-22T08:33:42;20.55;;;13.82;;
34876;SDS011;21086;44.780;17.194;2022-10-22T08:36:09;23.63;;;14.02;;
34876;SDS011;21086;44.780;17.194;2022-10-22T08:38:36;18.13;;;13.77;;
34876;SDS011;21086;44.780;17.194;2022-10-22T08:41:13;20.33;;;13.82;;
34876;SDS011;21086;44.780;17.194;2022-10-22T08:43:50;24.98;;;12.70;;
34876;SDS011;21086;44.780;17.194;2022-10-22T08:46:36;17.67;;;13.07;;
34876;SDS011;21086;44.780;17.194;2022-10-22T08:49:25;19.30;;;12.35;;
34876;SDS011;21086;44.780;17.194;2022-10-22T08:51:58;16.00;;;10.70;;
34876;SDS011;21086;44.780;17.194;2022-10-22T08:54:46;14.88;;;10.35;;
34876;SDS011;21086;44.780;17.194;2022-10-22T09:00:04;17.13;;;11.13;;
34876;SDS011;21086;44.780;17.194;2022-10-22T09:02:38;19.38;;;12.90;;
34876;SDS011;21086;44.780;17.194;2022-10-22T09:05:12;14.70;;;11.80;;
34876;SDS011;21086;44.780;17.194;2022-10-22T09:07:47;17.50;;;12.15;;
34876;SDS011;21086;44.780;17.194;2022-10-22T09:10:16;18.85;;;11.45;;
34876;SDS011;21086;44.780;17.194;2022-10-22T09:12:46;20.33;;;10.38;;
34876;SDS011;21086;44.780;17.194;2022-10-22T09:15:14;18.35;;;10.80;;
34876;SDS011;21086;44.780;17.194;2022-10-22T09:20:31;20.75;;;11.30;;
34876;SDS011;21086;44.780;17.194;2022-10-22T09:23:04;17.70;;;10.18;;
34876;SDS011;21086;44.780;17.194;2022-10-22T09:25:38;20.30;;;12.25;;
34876;SDS011;21086;44.780;17.194;2022-10-22T09:28:07;18.77;;;10.90;;
34876;SDS011;21086;44.780;17.194;2022-10-22T09:30:35;20.17;;;10.73;;
34876;SDS011;21086;44.780;17.194;2022-10-22T09:35:46;21.27;;;11.52;;
34876;SDS011;21086;44.780;17.194;2022-10-22T09:38:20;24.48;;;12.10;;
34876;SDS011;21086;44.780;17.194;2022-10-22T09:40:52;23.55;;;11.60;;
34876;SDS011;21086;44.780;17.194;2022-10-22T09:43:20;24.23;;;11.02;;
34876;SDS011;21086;44.780;17.194;2022-10-22T09:45:47;25.33;;;10.55;;
34876;SDS011;21086;44.780;17.194;2022-10-22T09:48:22;19.85;;;10.93;;
34876;SDS011;21086;44.780;17.194;2022-10-22T09:53:46;19.38;;;11.45;;
34876;SDS011;21086;44.780;17.194;2022-10-22T09:56:28;14.93;;;11.50;;
34876;SDS011;21086;44.780;17.194;2022-10-22T09:59:03;15.80;;;11.00;;
34876;SDS011;21086;44.780;17.194;2022-10-22T10:01:31;14.60;;;10.07;;
34876;SDS011;21086;44.780;17.194;2022-10-22T10:04:05;19.33;;;10.57;;
34876;SDS011;21086;44.780;17.194;2022-10-22T10:06:37;17.83;;;10.00;;
34876;SDS011;21086;44.780;17.194;2022-10-22T10:09:17;21.08;;;10.75;;
34876;SDS011;21086;44.780;17.194;2022-10-22T10:14:42;21.30;;;10.98;;
34876;SDS011;21086;44.780;17.194;2022-10-22T10:20:33;27.02;;;11.20;;
34876;SDS011;21086;44.780;17.194;2022-10-22T10:23:09;23.35;;;12.25;;
34876;SDS011;21086;44.780;17.194;2022-10-22T10:25:57;29.00;;;12.35;;
34876;SDS011;21086;44.780;17.194;2022-10-22T11:06:51;21.67;;;12.40;;
34876;SDS011;21086;44.780;17.194;2022-10-22T11:09:46;27.20;;;13.38;;
34876;SDS011;21086;44.780;17.194;2022-10-22T11:12:20;37.70;;;15.38;;
34876;SDS011;21086;44.780;17.194;2022-10-22T11:17:43;27.02;;;14.02;;
34876;SDS011;21086;44.780;17.194;2022-10-22T11:23:12;23.85;;;13.90;;
34876;SDS011;21086;44.780;17.194;2022-10-22T11:25:46;60.25;;;16.65;;
34876;SDS011;21086;44.780;17.194;2022-10-22T11:31:05;38.58;;;14.90;;
34876;SDS011;21086;44.780;17.194;2022-10-22T11:36:12;46.40;;;14.57;;
34876;SDS011;21086;44.780;17.194;2022-10-22T11:38:40;47.78;;;15.00;;
34876;SDS011;21086;44.780;17.194;2022-10-22T11:41:15;46.22;;;13.90;;
34876;SDS011;21086;44.780;17.194;2022-10-22T11:46:43;33.78;;;13.45;;
34876;SDS011;21086;44.780;17.194;2022-10-22T11:51:39;62.38;;;17.70;;
34876;SDS011;21086;44.780;17.194;2022-10-22T11:54:41;30.27;;;13.65;;
34876;SDS011;21086;44.780;17.194;2022-10-22T11:57:14;43.92;;;14.35;;
34876;SDS011;21086;44.780;17.194;2022-10-22T12:07:52;17.05;;;11.02;;
34876;SDS011;21086;44.780;17.194;2022-10-22T12:10:33;26.50;;;13.07;;
34876;SDS011;21086;44.780;17.194;2022-10-22T12:16:25;12.65;;;6.90;;
34876;SDS011;21086;44.780;17.194;2022-10-22T12:19:15;23.70;;;9.50;;
34876;SDS011;21086;44.780;17.194;2022-10-22T12:21:51;13.80;;;6.60;;
34876;SDS011;21086;44.780;17.194;2022-10-22T12:24:21;8.88;;;5.32;;
34876;SDS011;21086;44.780;17.194;2022-10-22T12:26:49;6.47;;;4.45;;
34876;SDS011;21086;44.780;17.194;2022-10-22T12:29:19;12.48;;;5.25;;
34876;SDS011;21086;44.780;17.194;2022-10-22T12:31:51;4.45;;;3.03;;
34876;SDS011;21086;44.780;17.194;2022-10-22T12:34:21;19.25;;;5.72;;
34876;SDS011;21086;44.780;17.194;2022-10-22T12:36:50;9.20;;;4.20;;
34876;SDS011;21086;44.780;17.194;2022-10-22T12:39:19;9.88;;;2.50;;
34876;SDS011;21086;44.780;17.194;2022-10-22T12:41:51;6.93;;;2.58;;
34876;SDS011;21086;44.780;17.194;2022-10-22T12:44:19;5.15;;;2.55;;
34876;SDS011;21086;44.780;17.194;2022-10-22T12:46:46;5.20;;;2.20;;
34876;SDS011;21086;44.780;17.194;2022-10-22T12:49:21;3.75;;;1.75;;
34876;SDS011;21086;44.780;17.194;2022-10-22T12:52:04;5.25;;;2.28;;
34876;SDS011;21086;44.780;17.194;2022-10-22T12:54:38;5.32;;;2.60;;
34876;SDS011;21086;44.780;17.194;2022-10-22T12:57:09;12.07;;;4.40;;
34876;SDS011;21086;44.780;17.194;2022-10-22T12:59:40;12.50;;;7.57;;
34876;SDS011;21086;44.780;17.194;2022-10-22T13:02:16;16.05;;;8.30;;
34876;SDS011;21086;44.780;17.194;2022-10-22T13:05:05;20.63;;;9.38;;
34876;SDS011;21086;44.780;17.194;2022-10-22T13:07:41;16.85;;;8.00;;
34876;SDS011;21086;44.780;17.194;2022-10-22T13:10:13;17.27;;;7.00;;
34876;SDS011;21086;44.780;17.194;2022-10-22T13:12:57;7.18;;;3.22;;
34876;SDS011;21086;44.780;17.194;2022-10-22T13:18:05;6.68;;;3.75;;
34876;SDS011;21086;44.780;17.194;2022-10-22T13:20:52;7.43;;;4.03;;
34876;SDS011;21086;44.780;17.194;2022-10-22T13:23:22;6.60;;;2.88;;
34876;SDS011;21086;44.780;17.194;2022-10-22T13:26:28;20.65;;;5.80;;
34876;SDS011;21086;44.780;17.194;2022-10-22T13:28:51;13.00;;;7.63;;
34876;SDS011;21086;44.780;17.194;2022-10-22T13:31:24;32.88;;;13.57;;
34876;SDS011;21086;44.780;17.194;2022-10-22T13:34:00;11.82;;;8.32;;
34876;SDS011;21086;44.780;17.194;2022-10-22T13:36:36;15.88;;;9.50;;
34876;SDS011;21086;44.780;17.194;2022-10-22T13:39:05;13.00;;;6.82;;
34876;SDS011;21086;44.780;17.194;2022-10-22T13:41:37;8.98;;;4.13;;
34876;SDS011;21086;44.780;17.194;2022-10-22T13:44:05;28.73;;;18.73;;
34876;SDS011;21086;44.780;17.194;2022-10-22T13:46:32;13.48;;;9.13;;
34876;SDS011;21086;44.780;17.194;2022-10-22T13:49:02;14.63;;;4.50;;
34876;SDS011;21086;44.780;17.194;2022-10-22T13:51:31;7.80;;;4.47;;
34876;SDS011;21086;44.780;17.194;2022-10-22T13:54:02;6.60;;;3.88;;
34876;SDS011;21086;44.780;17.194;2022-10-22T13:56:55;11.32;;;4.57;;
34876;SDS011;21086;44.780;17.194;2022-10-22T13:59:21;5.22;;;3.08;;
34876;SDS011;21086;44.780;17.194;2022-10-22T14:01:49;4.28;;;2.95;;
34876;SDS011;21086;44.780;17.194;2022-10-22T14:04:16;3.45;;;2.53;;
34876;SDS011;21086;44.780;17.194;2022-10-22T14:06:43;4.40;;;2.58;;
34876;SDS011;21086;44.780;17.194;2022-10-22T14:09:12;3.97;;;3.13;;
34876;SDS011;21086;44.780;17.194;2022-10-22T14:11:41;3.65;;;2.67;;
34876;SDS011;21086;44.780;17.194;2022-10-22T14:14:08;3.75;;;2.60;;
34876;SDS011;21086;44.780;17.194;2022-10-22T14:16:39;8.45;;;3.45;;
34876;SDS011;21086;44.780;17.194;2022-10-22T14:19:06;10.23;;;3.70;;
34876;SDS011;21086;44.780;17.194;2022-10-22T14:21:39;14.48;;;5.35;;
34876;SDS011;21086;44.780;17.194;2022-10-22T14:24:07;11.77;;;4.65;;
34876;SDS011;21086;44.780;17.194;2022-10-22T14:26:38;18.88;;;10.57;;
34876;SDS011;21086;44.780;17.194;2022-10-22T14:29:05;15.85;;;9.77;;
34876;SDS011;21086;44.780;17.194;2022-10-22T14:31:37;16.23;;;9.45;;
34876;SDS011;21086;44.780;17.194;2022-10-22T14:34:06;13.20;;;8.43;;
34876;SDS011;21086;44.780;17.194;2022-10-22T14:36:40;16.70;;;8.32;;
34876;SDS011;21086;44.780;17.194;2022-10-22T14:39:10;14.05;;;8.95;;
34876;SDS011;21086;44.780;17.194;2022-10-22T14:41:38;11.82;;;7.20;;
34876;SDS011;21086;44.780;17.194;2022-10-22T14:44:07;18.17;;;7.53;;
34876;SDS011;21086;44.780;17.194;2022-10-22T14:46:39;14.18;;;7.78;;
34876;SDS011;21086;44.780;17.194;2022-10-22T14:49:09;9.60;;;5.30;;
34876;SDS011;21086;44.780;17.194;2022-10-22T14:51:36;8.40;;;5.72;;
34876;SDS011;21086;44.780;17.194;2022-10-22T14:54:03;13.10;;;5.38;;
34876;SDS011;21086;44.780;17.194;2022-10-22T14:56:30;9.73;;;4.90;;
34876;SDS011;21086;44.780;17.194;2022-10-22T14:58:57;8.45;;;4.55;;
34876;SDS011;21086;44.780;17.194;2022-10-22T15:01:24;7.82;;;3.88;;
34876;SDS011;21086;44.780;17.194;2022-10-22T15:03:50;8.52;;;3.92;;
34876;SDS011;21086;44.780;17.194;2022-10-22T15:06:17;7.60;;;3.42;;
34876;SDS011;21086;44.780;17.194;2022-10-22T15:08:44;7.75;;;3.92;;
34876;SDS011;21086;44.780;17.194;2022-10-22T15:11:11;9.73;;;5.05;;
34876;SDS011;21086;44.780;17.194;2022-10-22T15:13:38;7.22;;;4.60;;
34876;SDS011;21086;44.780;17.194;2022-10-22T15:16:07;10.77;;;7.00;;
34876;SDS011;21086;44.780;17.194;2022-10-22T15:18:35;14.57;;;8.65;;
34876;SDS011;21086;44.780;17.194;2022-10-22T15:21:03;14.32;;;6.43;;
34876;SDS011;21086;44.780;17.194;2022-10-22T15:23:33;23.40;;;14.95;;
34876;SDS011;21086;44.780;17.194;2022-10-22T15:26:01;28.85;;;17.02;;
34876;SDS011;21086;44.780;17.194;2022-10-22T15:28:27;29.52;;;18.52;;
34876;SDS011;21086;44.780;17.194;2022-10-22T15:30:55;17.10;;;11.32;;
34876;SDS011;21086;44.780;17.194;2022-10-22T15:33:24;15.23;;;7.80;;
34876;SDS011;21086;44.780;17.194;2022-10-22T15:35:52;10.98;;;8.02;;
34876;SDS011;21086;44.780;17.194;2022-10-22T15:38:19;11.98;;;7.07;;
34876;SDS011;21086;44.780;17.194;2022-10-22T15:40:47;15.52;;;5.15;;
34876;SDS011;21086;44.780;17.194;2022-10-22T15:43:13;29.65;;;22.38;;
34876;SDS011;21086;44.780;17.194;2022-10-22T15:45:41;12.40;;;6.93;;
34876;SDS011;21086;44.780;17.194;2022-10-22T15:48:07;9.77;;;5.22;;
34876;SDS011;21086;44.780;17.194;2022-10-22T15:50:38;10.70;;;3.95;;
34876;SDS011;21086;44.780;17.194;2022-10-22T15:53:05;9.48;;;3.90;;
34876;SDS011;21086;44.780;17.194;2022-10-22T15:55:32;13.35;;;4.88;;
34876;SDS011;21086;44.780;17.194;2022-10-22T15:57:58;11.45;;;5.82;;
34876;SDS011;21086;44.780;17.194;2022-10-22T16:00:29;9.82;;;4.05;;
34876;SDS011;21086;44.780;17.194;2022-10-22T16:02:56;14.05;;;4.72;;
34876;SDS011;21086;44.780;17.194;2022-10-22T16:05:23;7.07;;;4.50;;
34876;SDS011;21086;44.780;17.194;2022-10-22T16:07:53;8.05;;;5.03;;
34876;SDS011;21086;44.780;17.194;2022-10-22T16:10:21;7.95;;;5.40;;
34876;SDS011;21086;44.780;17.194;2022-10-22T16:12:48;8.70;;;5.18;;
34876;SDS011;21086;44.780;17.194;2022-10-22T16:15:17;10.10;;;5.72;;
34876;SDS011;21086;44.780;17.194;2022-10-22T16:17:44;7.85;;;5.03;;
34876;SDS011;21086;44.780;17.194;2022-10-22T16:20:11;13.55;;;6.60;;
34876;SDS011;21086;44.780;17.194;2022-10-22T16:22:42;17.65;;;9.05;;
34876;SDS011;21086;44.780;17.194;2022-10-22T16:25:10;12.50;;;9.75;;